createdAt,value
2018-03-11T00:00:21.246Z,17.53
2018-03-11T00:02:47.033Z,17.57
2018-03-11T00:05:12.819Z,17.57
2018-03-11T00:07:38.597Z,17.50
2018-03-11T00:10:04.382Z,17.46
2018-03-11T00:12:30.174Z,17.54
2018-03-11T00:14:55.954Z,17.56
2018-03-11T00:17:21.736Z,17.57
2018-03-11T00:19:47.514Z,17.48
2018-03-11T00:22:13.301Z,17.53
2018-03-11T00:24:39.129Z,17.63
2018-03-11T00:27:04.941Z,17.63
2018-03-11T00:29:30.726Z,17.66
2018-03-11T00:31:56.538Z,17.70
2018-03-11T00:34:22.318Z,17.66
2018-03-11T00:36:48.146Z,17.58
2018-03-11T00:39:13.930Z,17.69
2018-03-11T00:41:40.768Z,17.58
2018-03-11T00:44:06.545Z,17.56
2018-03-11T00:46:33.306Z,17.55
2018-03-11T00:48:59.086Z,17.66
2018-03-11T00:51:24.903Z,17.69
2018-03-11T00:53:50.682Z,17.78
2018-03-11T00:56:16.505Z,17.79
2018-03-11T00:58:42.286Z,17.85
2018-03-11T01:01:08.102Z,17.85
2018-03-11T01:03:33.889Z,17.81
2018-03-11T01:06:00.617Z,17.83
2018-03-11T01:08:26.400Z,17.87
2018-03-11T01:10:52.177Z,17.85
2018-03-11T01:13:17.997Z,17.82
2018-03-11T01:15:43.781Z,17.73
2018-03-11T01:18:09.593Z,17.63
2018-03-11T01:20:35.405Z,17.68
2018-03-11T01:23:01.216Z,17.69
2018-03-11T01:25:26.998Z,17.59
2018-03-11T01:27:52.782Z,17.67
2018-03-11T01:30:18.563Z,17.65
2018-03-11T01:32:44.346Z,17.54
2018-03-11T01:35:10.130Z,17.57
2018-03-11T01:37:36.738Z,17.67
2018-03-11T01:40:02.535Z,17.60
2018-03-11T01:42:28.318Z,17.61
2018-03-11T01:44:54.133Z,17.62
2018-03-11T01:47:19.914Z,17.60
2018-03-11T01:49:45.725Z,17.66
2018-03-11T01:52:11.510Z,17.67
2018-03-11T01:54:37.291Z,17.71
2018-03-11T01:57:03.070Z,17.62
2018-03-11T01:59:28.846Z,17.53
2018-03-11T02:01:55.746Z,17.54
2018-03-11T02:04:21.526Z,17.48
2018-03-11T02:06:47.311Z,17.51
2018-03-11T02:09:13.110Z,17.51
2018-03-11T02:11:38.882Z,17.45
2018-03-11T02:14:04.655Z,17.44
2018-03-11T02:16:30.429Z,17.55
2018-03-11T02:18:57.129Z,17.56
2018-03-11T02:21:22.939Z,17.55
2018-03-11T02:23:48.722Z,17.68
2018-03-11T02:26:14.498Z,17.72
2018-03-11T02:28:40.310Z,17.63
2018-03-11T02:31:06.098Z,17.58
2018-03-11T02:33:31.918Z,17.53
2018-03-11T02:35:57.697Z,17.49
2018-03-11T02:38:23.473Z,17.53
2018-03-11T02:40:49.249Z,17.55
2018-03-11T02:43:15.038Z,17.48
2018-03-11T02:45:40.818Z,17.51
2018-03-11T02:48:06.664Z,17.61
2018-03-11T02:50:32.449Z,17.54
2018-03-11T02:52:58.235Z,17.51
2018-03-11T02:55:25.053Z,17.54
2018-03-11T02:57:50.833Z,17.41
2018-03-11T03:00:16.608Z,17.55
2018-03-11T03:02:42.394Z,17.55
2018-03-11T03:05:09.133Z,17.45
2018-03-11T03:07:34.910Z,17.47
2018-03-11T03:10:00.686Z,17.53
2018-03-11T03:12:26.466Z,17.55
2018-03-11T03:14:52.246Z,17.48
2018-03-11T03:17:18.037Z,17.47
2018-03-11T03:19:43.817Z,17.51
2018-03-11T03:22:09.601Z,17.54
2018-03-11T03:24:35.386Z,17.57
2018-03-11T03:27:01.161Z,17.60
2018-03-11T03:29:26.946Z,17.63
2018-03-11T03:31:52.722Z,17.61
2018-03-11T03:34:18.496Z,17.61
2018-03-11T03:36:45.159Z,17.67
2018-03-11T03:39:11.869Z,17.68
2018-03-11T03:41:38.708Z,17.50
2018-03-11T03:44:05.511Z,17.61
2018-03-11T03:46:31.329Z,17.59
2018-03-11T03:48:58.126Z,17.60
2018-03-11T03:51:23.935Z,17.58
2018-03-11T03:53:50.590Z,17.60
2018-03-11T03:56:17.366Z,17.52
2018-03-11T03:58:44.073Z,17.53
2018-03-11T04:01:09.881Z,17.48
2018-03-11T04:03:35.705Z,17.54
2018-03-11T04:06:01.518Z,17.49
2018-03-11T04:08:28.286Z,17.43
2018-03-11T04:10:54.098Z,17.40
2018-03-11T04:13:20.843Z,17.55
2018-03-11T04:15:47.678Z,17.45
2018-03-11T04:18:13.487Z,17.55
2018-03-11T04:20:40.317Z,17.46
2018-03-11T04:23:07.110Z,17.50
2018-03-11T04:25:32.881Z,17.54
2018-03-11T04:27:59.453Z,17.61
2018-03-11T04:30:26.190Z,17.48
2018-03-11T04:32:52.969Z,17.55
2018-03-11T04:35:19.686Z,17.42
2018-03-11T04:37:46.407Z,17.47
2018-03-11T04:40:13.102Z,17.43
2018-03-11T04:42:39.904Z,17.42
2018-03-11T04:45:06.673Z,17.49
2018-03-11T04:47:32.457Z,17.54
2018-03-11T04:49:58.265Z,17.47
2018-03-11T04:52:24.081Z,17.49
2018-03-11T04:54:50.665Z,17.56
2018-03-11T04:57:17.361Z,17.50
2018-03-11T04:59:43.173Z,17.48
2018-03-11T05:02:09.882Z,17.52
2018-03-11T05:04:35.689Z,17.47
2018-03-11T05:07:01.510Z,17.57
2018-03-11T05:09:27.290Z,17.45
2018-03-11T05:11:53.949Z,17.54
2018-03-11T05:14:19.727Z,17.50
2018-03-11T05:16:45.547Z,17.46
2018-03-11T05:19:11.987Z,17.55
2018-03-11T05:21:37.804Z,17.59
2018-03-11T05:24:03.626Z,17.66
2018-03-11T05:26:29.416Z,17.66
2018-03-11T05:28:55.228Z,17.54
2018-03-11T05:31:21.044Z,17.56
2018-03-11T05:33:47.618Z,17.49
2018-03-11T05:36:14.349Z,17.48
2018-03-11T05:38:40.130Z,17.51
2018-03-11T05:41:05.905Z,17.42
2018-03-11T05:43:32.685Z,17.48
2018-03-11T05:45:59.469Z,17.35
2018-03-11T05:48:25.246Z,17.36
2018-03-11T05:50:51.948Z,17.43
2018-03-11T05:53:18.747Z,17.46
2018-03-11T05:55:45.570Z,17.47
2018-03-11T05:58:11.337Z,17.50
2018-03-11T06:00:37.120Z,17.47
2018-03-11T06:03:02.918Z,17.48
2018-03-11T06:05:28.715Z,17.41
2018-03-11T06:07:55.393Z,17.52
2018-03-11T06:10:22.137Z,17.47
2018-03-11T06:12:47.913Z,17.46
2018-03-11T06:15:13.687Z,17.53
2018-03-11T06:17:39.507Z,17.45
2018-03-11T06:20:05.285Z,17.47
2018-03-11T06:22:32.078Z,17.52
2018-03-11T06:24:57.852Z,17.43
2018-03-11T06:27:24.653Z,17.44
2018-03-11T06:29:51.485Z,17.54
2018-03-11T06:32:17.258Z,17.47
2018-03-11T06:34:43.029Z,17.51
2018-03-11T06:37:08.812Z,17.55
2018-03-11T06:39:34.593Z,17.63
2018-03-11T06:42:00.373Z,17.69
2018-03-11T06:44:26.144Z,17.54
2018-03-11T06:46:51.921Z,17.50
2018-03-11T06:49:21.952Z,17.61
2018-03-11T06:51:47.866Z,17.52
2018-03-11T06:54:13.648Z,17.55
2018-03-11T06:56:39.425Z,17.50
2018-03-11T06:59:05.238Z,17.42
2018-03-11T07:01:31.009Z,17.47
2018-03-11T07:03:57.617Z,17.51
2018-03-11T07:06:23.399Z,17.51
2018-03-11T07:08:49.213Z,17.54
2018-03-11T07:11:15.007Z,17.65
2018-03-11T07:13:40.788Z,17.53
2018-03-11T07:16:06.613Z,17.59
2018-03-11T07:18:32.393Z,17.57
2018-03-11T07:20:58.173Z,17.57
2018-03-11T07:23:23.952Z,17.20
2018-03-11T07:25:49.825Z,17.44
2018-03-11T07:28:15.599Z,17.61
2018-03-11T07:30:41.379Z,17.53
2018-03-11T07:33:07.158Z,17.50
2018-03-11T07:35:32.934Z,17.63
2018-03-11T07:37:59.513Z,17.60
2018-03-11T07:40:25.281Z,17.61
2018-03-11T07:42:51.102Z,17.75
2018-03-11T07:45:17.849Z,17.77
2018-03-11T07:47:43.635Z,17.66
2018-03-11T07:50:09.410Z,17.71
2018-03-11T07:52:35.227Z,17.76
2018-03-11T07:55:02.030Z,17.78
2018-03-11T07:57:27.870Z,17.76
2018-03-11T07:59:54.502Z,17.86
2018-03-11T08:02:20.319Z,17.75
2018-03-11T08:04:46.102Z,17.88
2018-03-11T08:07:11.922Z,17.97
2018-03-11T08:09:38.636Z,18.10
2018-03-11T08:12:05.450Z,18.19
2018-03-11T08:14:32.243Z,18.20
2018-03-11T08:16:59.025Z,18.19
2018-03-11T08:19:25.802Z,18.22
2018-03-11T08:21:52.526Z,18.22
2018-03-11T08:24:18.338Z,18.25
2018-03-11T08:26:52.191Z,18.21
2018-03-11T08:29:18.014Z,18.18
2018-03-11T08:31:44.810Z,18.09
2018-03-11T08:34:11.571Z,18.03
2018-03-11T08:36:37.351Z,18.18
2018-03-11T08:39:04.110Z,18.27
2018-03-11T08:41:30.966Z,18.20
2018-03-11T08:43:57.685Z,18.20
2018-03-11T08:46:23.481Z,18.12
2018-03-11T08:48:49.258Z,18.15
2018-03-11T08:51:16.121Z,18.14
2018-03-11T08:53:42.714Z,17.99
2018-03-11T08:56:08.494Z,18.17
2018-03-11T08:58:35.201Z,18.17
2018-03-11T09:01:00.976Z,18.11
2018-03-11T09:03:26.758Z,18.24
2018-03-11T09:05:53.598Z,18.11
2018-03-11T09:08:20.338Z,18.06
2018-03-11T09:10:47.050Z,18.25
2018-03-11T09:13:12.898Z,18.21
2018-03-11T09:15:39.490Z,18.13
2018-03-11T09:18:05.337Z,18.06
2018-03-11T09:20:31.151Z,18.13
2018-03-11T09:22:56.970Z,18.19
2018-03-11T09:25:22.785Z,18.20
2018-03-11T09:27:48.610Z,18.22
2018-03-11T09:30:14.395Z,18.25
2018-03-11T09:32:40.176Z,18.27
2018-03-11T09:35:05.958Z,18.28
2018-03-11T09:37:32.738Z,18.28
2018-03-11T09:39:59.524Z,18.29
2018-03-11T09:42:25.295Z,18.29
2018-03-11T09:44:51.077Z,18.16
2018-03-11T09:47:17.856Z,18.19
2018-03-11T09:49:43.634Z,18.24
2018-03-11T09:52:09.423Z,18.17
2018-03-11T09:54:36.137Z,18.08
2018-03-11T09:57:01.926Z,18.21
2018-03-11T09:59:28.778Z,18.20
2018-03-11T10:01:55.485Z,18.31
2018-03-11T10:04:21.704Z,18.19
2018-03-11T10:06:48.481Z,18.19
2018-03-11T10:09:15.271Z,18.17
2018-03-11T10:11:42.045Z,18.16
2018-03-11T10:14:07.830Z,18.20
2018-03-11T10:16:34.546Z,18.24
2018-03-11T10:19:01.382Z,18.27
2018-03-11T10:21:28.254Z,18.33
2018-03-11T10:23:54.037Z,18.51
2018-03-11T10:26:20.838Z,18.54
2018-03-11T10:28:47.641Z,18.64
2018-03-11T10:31:14.443Z,18.58
2018-03-11T10:33:40.222Z,18.64
2018-03-11T10:36:06.005Z,18.52
2018-03-11T10:38:32.839Z,18.57
2018-03-11T10:40:59.709Z,18.50
2018-03-11T10:43:26.462Z,18.51
2018-03-11T10:45:53.188Z,18.48
2018-03-11T10:48:18.995Z,18.49
2018-03-11T10:50:45.667Z,18.54
2018-03-11T10:53:11.493Z,18.45
2018-03-11T10:55:37.374Z,18.43
2018-03-11T10:58:03.142Z,18.44
2018-03-11T11:00:28.958Z,18.45
2018-03-11T11:03:00.978Z,18.46
2018-03-11T11:05:27.666Z,18.40
2018-03-11T11:07:53.494Z,18.45
2018-03-11T11:10:19.290Z,18.50
2018-03-11T11:12:45.111Z,18.42
2018-03-11T11:15:10.906Z,18.43
2018-03-11T11:17:36.697Z,18.45
2018-03-11T11:20:02.540Z,18.37
2018-03-11T11:22:28.391Z,18.35
2018-03-11T11:24:54.186Z,18.34
2018-03-11T11:27:20.933Z,18.33
2018-03-11T11:29:46.725Z,18.31
2018-03-11T11:32:12.519Z,18.36
2018-03-11T11:34:38.301Z,18.62
2018-03-11T11:37:04.094Z,18.57
2018-03-11T11:39:29.884Z,18.58
2018-03-11T11:41:56.651Z,18.52
2018-03-11T11:44:22.434Z,18.56
2018-03-11T11:46:48.229Z,18.56
2018-03-11T11:49:14.025Z,18.62
2018-03-11T11:51:39.817Z,18.58
2018-03-11T11:54:05.604Z,18.61
2018-03-11T11:56:31.394Z,18.63
2018-03-11T11:58:57.190Z,18.60
2018-03-11T12:01:22.974Z,18.64
2018-03-11T12:03:48.759Z,18.51
2018-03-11T12:06:15.402Z,18.54
2018-03-11T12:08:41.209Z,18.49
2018-03-11T12:11:07.004Z,18.51
2018-03-11T12:13:32.822Z,18.53
2018-03-11T12:15:59.410Z,18.57
2018-03-11T12:18:25.229Z,18.41
2018-03-11T12:20:51.666Z,18.40
2018-03-11T12:23:17.474Z,18.42
2018-03-11T12:25:44.114Z,18.46
2018-03-11T12:28:09.930Z,18.43
2018-03-11T12:30:36.584Z,18.50
2018-03-11T12:33:02.403Z,18.53
2018-03-11T12:35:29.095Z,18.48
2018-03-11T12:37:54.913Z,18.43
2018-03-11T12:40:20.690Z,18.47
2018-03-11T12:42:47.398Z,18.45
2018-03-11T12:45:13.207Z,18.40
2018-03-11T12:47:38.980Z,18.45
2018-03-11T12:50:05.631Z,18.39
2018-03-11T12:52:31.436Z,18.47
2018-03-11T12:54:58.135Z,18.57
2018-03-11T12:57:24.923Z,18.44
2018-03-11T12:59:50.737Z,18.45
2018-03-11T13:02:16.552Z,18.49
2018-03-11T13:04:42.330Z,18.45
2018-03-11T13:07:09.059Z,18.53
2018-03-11T13:09:34.836Z,18.47
2018-03-11T13:12:01.600Z,18.45
2018-03-11T13:14:27.378Z,18.35
2018-03-11T13:16:54.089Z,18.36
2018-03-11T13:19:19.874Z,18.47
2018-03-11T13:21:45.717Z,18.42
2018-03-11T13:24:12.418Z,18.55
2018-03-11T13:26:38.200Z,18.53
2018-03-11T13:29:03.971Z,18.45
2018-03-11T13:31:29.755Z,18.48
2018-03-11T13:34:01.683Z,18.50
2018-03-11T13:36:27.465Z,18.44
2018-03-11T13:38:59.409Z,18.42
2018-03-11T13:41:25.181Z,18.40
2018-03-11T13:43:50.957Z,18.51
2018-03-11T13:46:23.078Z,18.45
2018-03-11T13:48:48.870Z,18.60
2018-03-11T13:51:21.023Z,18.71
2018-03-11T13:53:50.827Z,18.77
2018-03-11T13:56:16.604Z,18.80
2018-03-11T13:58:42.399Z,18.85
2018-03-11T14:01:08.184Z,18.83
2018-03-11T14:03:35.006Z,18.97
2018-03-11T14:06:01.689Z,18.87
2018-03-11T14:08:27.510Z,18.79
2018-03-11T14:10:53.291Z,18.79
2018-03-11T14:13:19.113Z,18.73
2018-03-11T14:15:44.886Z,18.65
2018-03-11T14:18:10.665Z,18.68
2018-03-11T14:20:37.408Z,18.71
2018-03-11T14:23:03.222Z,18.64
2018-03-11T14:25:28.998Z,18.59
2018-03-11T14:27:54.813Z,18.54
2018-03-11T14:30:20.617Z,18.55
2018-03-11T14:32:46.402Z,18.46
2018-03-11T14:35:12.178Z,18.53
2018-03-11T14:37:37.955Z,18.45
2018-03-11T14:40:03.782Z,18.49
2018-03-11T14:42:29.561Z,18.47
2018-03-11T14:44:55.335Z,18.50
2018-03-11T14:47:21.114Z,18.48
2018-03-11T14:49:46.926Z,18.57
2018-03-11T14:52:13.553Z,18.55
2018-03-11T14:54:39.330Z,18.47
2018-03-11T14:57:05.102Z,18.41
2018-03-11T14:59:30.873Z,18.43
2018-03-11T15:01:56.665Z,18.42
2018-03-11T15:04:22.537Z,18.51
2018-03-11T15:06:49.166Z,18.51
2018-03-11T15:09:14.938Z,18.45
2018-03-11T15:11:40.718Z,18.42
2018-03-11T15:14:06.494Z,18.47
2018-03-11T15:16:32.308Z,18.56
2018-03-11T15:18:58.072Z,18.50
2018-03-11T15:21:23.886Z,18.55
2018-03-11T15:23:49.675Z,18.45
2018-03-11T15:26:15.447Z,18.44
2018-03-11T15:28:41.254Z,18.43
2018-03-11T15:31:07.037Z,18.41
2018-03-11T15:33:32.853Z,18.50
2018-03-11T15:35:59.618Z,18.41
2018-03-11T15:38:25.436Z,18.44
2018-03-11T15:40:52.162Z,18.53
2018-03-11T15:43:17.936Z,18.45
2018-03-11T15:45:43.740Z,18.46
2018-03-11T15:48:09.514Z,18.47
2018-03-11T15:50:35.292Z,18.57
2018-03-11T15:53:01.070Z,18.44
2018-03-11T15:55:26.846Z,18.48
2018-03-11T15:57:52.634Z,18.44
2018-03-11T16:00:19.287Z,18.44
2018-03-11T16:02:45.062Z,18.38
2018-03-11T16:05:10.842Z,18.44
2018-03-11T16:07:36.623Z,18.39
2018-03-11T16:10:02.402Z,18.43
2018-03-11T16:12:28.169Z,18.47
2018-03-11T16:14:53.943Z,18.40
2018-03-11T16:17:19.893Z,18.49
2018-03-11T16:19:45.705Z,18.42
2018-03-11T16:22:11.486Z,18.43
2018-03-11T16:24:39.724Z,18.32
2018-03-11T16:27:03.107Z,18.44
2018-03-11T16:29:28.882Z,18.40
2018-03-11T16:31:54.697Z,18.39
2018-03-11T16:34:20.482Z,18.43
2018-03-11T16:36:47.279Z,18.41
2018-03-11T16:39:13.054Z,18.39
2018-03-11T16:41:39.798Z,18.32
2018-03-11T16:44:05.580Z,18.32
2018-03-11T16:46:32.446Z,18.38
2018-03-11T16:48:58.222Z,18.45
2018-03-11T16:51:24.850Z,18.28
2018-03-11T16:53:50.632Z,18.36
2018-03-11T16:56:17.411Z,18.33
2018-03-11T16:58:44.115Z,18.41
2018-03-11T17:01:09.962Z,18.34
2018-03-11T17:03:35.746Z,18.36
2018-03-11T17:06:01.526Z,18.40
2018-03-11T17:08:28.221Z,18.34
2018-03-11T17:10:55.018Z,18.34
2018-03-11T17:13:21.735Z,18.41
2018-03-11T17:15:48.490Z,18.36
2018-03-11T17:18:15.285Z,18.35
2018-03-11T17:20:42.000Z,18.42
2018-03-11T17:23:08.785Z,18.34
2018-03-11T17:25:35.505Z,18.44
2018-03-11T17:28:01.321Z,18.34
2018-03-11T17:30:28.077Z,18.43
2018-03-11T17:32:54.912Z,18.41
2018-03-11T17:35:21.609Z,18.40
2018-03-11T17:37:47.417Z,18.53
2018-03-11T17:40:14.006Z,18.45
2018-03-11T17:42:39.785Z,18.56
2018-03-11T17:45:05.557Z,18.63
2018-03-11T17:47:31.337Z,18.62
2018-03-11T17:49:58.095Z,18.60
2018-03-11T17:52:23.898Z,18.68
2018-03-11T17:54:50.534Z,18.51
2018-03-11T17:57:16.309Z,18.50
2018-03-11T17:59:43.038Z,18.58
2018-03-11T18:02:09.880Z,18.50
2018-03-11T18:04:35.695Z,18.46
2018-03-11T18:07:01.510Z,18.41
2018-03-11T18:09:28.305Z,18.46
2018-03-11T18:11:54.073Z,18.50
2018-03-11T18:14:19.852Z,18.47
2018-03-11T18:16:45.650Z,18.38
2018-03-11T18:19:11.422Z,18.38
2018-03-11T18:21:37.861Z,18.43
2018-03-11T18:24:04.483Z,18.54
2018-03-11T18:26:31.214Z,18.58
2018-03-11T18:28:57.942Z,18.48
2018-03-11T18:31:24.673Z,18.40
2018-03-11T18:33:51.425Z,18.45
2018-03-11T18:36:18.171Z,18.41
2018-03-11T18:38:44.866Z,18.45
2018-03-11T18:41:10.691Z,18.45
2018-03-11T18:43:36.514Z,18.47
2018-03-11T18:46:02.275Z,18.45
2018-03-11T18:48:28.050Z,18.46
2018-03-11T18:50:53.826Z,18.59
2018-03-11T18:53:19.602Z,18.51
2018-03-11T18:55:45.425Z,18.43
2018-03-11T18:58:11.198Z,18.33
2018-03-11T19:00:36.975Z,18.43
2018-03-11T19:03:02.749Z,18.36
2018-03-11T19:05:28.574Z,18.30
2018-03-11T19:07:54.393Z,18.29
2018-03-11T19:10:20.170Z,18.32
2018-03-11T19:12:45.976Z,18.31
2018-03-11T19:15:11.757Z,18.41
2018-03-11T19:17:37.533Z,18.39
2018-03-11T19:20:03.318Z,18.45
2018-03-11T19:22:29.145Z,18.29
2018-03-11T19:24:54.919Z,18.36
2018-03-11T19:27:20.695Z,18.33
2018-03-11T19:29:46.509Z,18.34
2018-03-11T19:32:12.297Z,18.26
2018-03-11T19:34:38.118Z,18.25
2018-03-11T19:37:03.914Z,18.22
2018-03-11T19:39:30.618Z,18.23
2018-03-11T19:41:56.401Z,18.18
2018-03-11T19:44:22.173Z,18.29
2018-03-11T19:46:47.954Z,18.29
2018-03-11T19:49:13.731Z,18.31
2018-03-11T19:51:39.550Z,18.33
2018-03-11T19:54:05.473Z,18.28
2018-03-11T19:56:31.261Z,18.27
2018-03-11T19:58:57.038Z,18.29
2018-03-11T20:01:22.813Z,18.24
2018-03-11T20:03:48.591Z,18.23
2018-03-11T20:06:14.512Z,18.27
2018-03-11T20:08:40.692Z,18.19
2018-03-11T20:11:06.517Z,18.26
2018-03-11T20:13:32.296Z,18.28
2018-03-11T20:15:58.938Z,18.37
2018-03-11T20:18:24.717Z,18.28
2018-03-11T20:20:50.592Z,18.31
2018-03-11T20:23:16.369Z,18.22
2018-03-11T20:25:42.178Z,18.26
2018-03-11T20:28:07.954Z,18.26
2018-03-11T20:30:35.004Z,18.21
2018-03-11T20:33:00.797Z,18.22
2018-03-11T20:35:26.849Z,18.15
2018-03-11T20:37:52.640Z,18.15
2018-03-11T20:40:18.414Z,18.12
2018-03-11T20:42:45.221Z,18.24
2018-03-11T20:45:11.002Z,18.19
2018-03-11T20:47:36.830Z,18.19
2018-03-11T20:50:02.602Z,18.19
2018-03-11T20:52:28.386Z,18.15
2018-03-11T20:54:54.250Z,18.20
2018-03-11T20:57:20.050Z,18.24
2018-03-11T20:59:45.829Z,18.16
2018-03-11T21:02:11.604Z,18.22
2018-03-11T21:04:37.417Z,18.13
2018-03-11T21:07:03.230Z,18.09
2018-03-11T21:09:29.895Z,18.13
2018-03-11T21:11:56.684Z,18.12
2018-03-11T21:14:22.498Z,18.21
2018-03-11T21:16:48.274Z,18.10
2018-03-11T21:19:15.072Z,18.14
2018-03-11T21:21:40.913Z,18.27
2018-03-11T21:24:06.690Z,18.12
2018-03-11T21:26:32.859Z,18.25
2018-03-11T21:28:58.689Z,18.32
2018-03-11T21:31:24.614Z,18.38
2018-03-11T21:33:50.386Z,18.37
2018-03-11T21:36:17.182Z,18.34
2018-03-11T21:38:43.810Z,18.37
2018-03-11T21:41:09.586Z,18.33
2018-03-11T21:43:35.362Z,18.34
2018-03-11T21:46:02.174Z,18.22
2018-03-11T21:48:27.954Z,18.28
2018-03-11T21:50:54.749Z,18.21
2018-03-11T21:53:21.498Z,18.34
2018-03-11T21:55:48.237Z,18.19
2018-03-11T21:58:14.045Z,18.30
2018-03-11T22:00:39.821Z,18.34
2018-03-11T22:03:05.605Z,18.26
2018-03-11T22:05:32.229Z,18.26
2018-03-11T22:07:58.001Z,18.23
2018-03-11T22:10:24.617Z,18.25
2018-03-11T22:12:50.393Z,18.20
2018-03-11T22:15:16.187Z,18.23
2018-03-11T22:17:43.058Z,18.26
2018-03-11T22:20:08.878Z,18.23
2018-03-11T22:22:34.711Z,18.26
2018-03-11T22:25:01.407Z,18.30
2018-03-11T22:27:28.242Z,18.25
2018-03-11T22:29:54.802Z,18.25
2018-03-11T22:32:20.586Z,18.27
2018-03-11T22:34:46.365Z,18.24
2018-03-11T22:37:12.138Z,18.24
2018-03-11T22:39:37.914Z,18.26
2018-03-11T22:42:03.701Z,18.31
2018-03-11T22:44:29.478Z,18.31
2018-03-11T22:46:55.245Z,18.23
2018-03-11T22:49:21.978Z,18.21
2018-03-11T22:51:47.757Z,18.10
2018-03-11T22:54:13.579Z,18.18
2018-03-11T22:56:39.356Z,18.08
2018-03-11T22:59:05.129Z,18.08
2018-03-11T23:01:31.818Z,18.10
2018-03-11T23:03:57.637Z,18.14
2018-03-11T23:06:23.422Z,18.18
2018-03-11T23:08:49.193Z,18.18
2018-03-11T23:11:14.966Z,18.18
2018-03-11T23:13:40.747Z,18.13
2018-03-11T23:16:06.526Z,18.16
2018-03-11T23:18:38.569Z,18.09
2018-03-11T23:21:04.385Z,18.12
2018-03-11T23:23:30.163Z,18.11
2018-03-11T23:25:55.981Z,18.10
2018-03-11T23:28:21.756Z,18.08
2018-03-11T23:30:47.537Z,18.10
2018-03-11T23:33:13.314Z,18.13
2018-03-11T23:35:39.090Z,18.17
2018-03-11T23:38:04.869Z,17.97
2018-03-11T23:40:30.644Z,18.01
2018-03-11T23:42:56.453Z,18.05
2018-03-11T23:45:22.225Z,18.09
2018-03-11T23:47:48.042Z,18.08
2018-03-11T23:50:13.818Z,18.04
2018-03-11T23:52:40.550Z,18.02
2018-03-11T23:55:06.325Z,18.08
2018-03-11T23:57:32.145Z,18.18
2018-03-11T23:59:57.923Z,18.09
